createdAt,value
2023-03-02T00:02:22.587Z,5.03
2023-03-02T00:06:25.885Z,4.93
2023-03-02T00:10:30.281Z,5.97
2023-03-02T00:14:33.069Z,6.72
2023-03-02T00:18:35.842Z,6.32
2023-03-02T00:22:39.200Z,7.05
2023-03-02T00:27:09.470Z,6.80
2023-03-02T00:31:16.045Z,6.43
2023-03-02T00:35:19.114Z,6.07
2023-03-02T00:39:21.920Z,5.85
2023-03-02T00:43:27.991Z,6.15
2023-03-02T00:47:31.221Z,5.25
2023-03-02T00:51:34.367Z,5.00
2023-03-02T00:55:38.036Z,5.45
2023-03-02T00:59:42.868Z,5.40
2023-03-02T01:03:58.331Z,5.20
2023-03-02T01:08:01.195Z,5.75
2023-03-02T01:12:05.492Z,5.65
2023-03-02T01:16:09.876Z,6.03
2023-03-02T01:20:13.417Z,5.45
2023-03-02T01:24:16.211Z,5.57
2023-03-02T01:28:18.946Z,5.35
2023-03-02T01:32:23.114Z,5.30
2023-03-02T01:36:25.934Z,5.63
2023-03-02T01:40:28.969Z,5.40
2023-03-02T01:44:41.670Z,5.32
2023-03-02T01:48:49.582Z,5.57
2023-03-02T01:52:59.003Z,5.40
2023-03-02T01:57:04.807Z,5.60
2023-03-02T02:01:15.641Z,5.78
2023-03-02T02:05:25.261Z,5.50
2023-03-02T02:09:30.726Z,4.82
2023-03-02T02:13:33.804Z,5.20
2023-03-02T02:17:36.811Z,5.15
2023-03-02T02:21:41.295Z,5.47
2023-03-02T02:25:55.368Z,5.25
2023-03-02T02:29:59.180Z,5.68
2023-03-02T02:34:15.002Z,5.65
2023-03-02T02:38:21.476Z,4.85
2023-03-02T02:42:31.268Z,5.20
2023-03-02T02:46:35.515Z,5.30
2023-03-02T02:50:39.026Z,5.07
2023-03-02T02:54:44.202Z,5.65
2023-03-02T02:58:51.765Z,5.53
2023-03-02T03:02:59.691Z,5.70
2023-03-02T03:07:05.123Z,5.80
2023-03-02T03:11:08.814Z,6.00
2023-03-02T03:15:14.888Z,5.88
2023-03-02T03:19:21.067Z,5.38
2023-03-02T03:23:23.992Z,5.32
2023-03-02T03:27:27.004Z,5.25
2023-03-02T03:31:31.358Z,4.65
2023-03-02T03:35:37.030Z,5.32
2023-03-02T03:39:41.358Z,5.20
2023-03-02T03:43:44.816Z,5.07
2023-03-02T03:47:49.224Z,5.75
2023-03-02T03:51:52.729Z,5.40
2023-03-02T03:55:56.884Z,5.20
2023-03-02T03:59:59.843Z,5.38
2023-03-02T04:04:05.835Z,5.03
2023-03-02T04:08:09.022Z,5.82
2023-03-02T04:12:13.277Z,5.30
2023-03-02T04:16:20.510Z,5.03
2023-03-02T04:20:26.577Z,5.40
2023-03-02T04:24:31.277Z,5.35
2023-03-02T04:28:37.469Z,4.90
2023-03-02T04:32:40.953Z,5.07
2023-03-02T04:36:46.396Z,4.95
2023-03-02T04:40:51.032Z,4.93
2023-03-02T04:44:53.868Z,4.70
2023-03-02T04:48:56.897Z,4.95
2023-03-02T04:53:00.993Z,4.93
2023-03-02T04:57:08.230Z,4.93
2023-03-02T05:01:12.218Z,5.05
2023-03-02T05:05:17.190Z,4.68
2023-03-02T05:09:27.063Z,4.95
2023-03-02T05:13:30.941Z,4.72
2023-03-02T05:17:33.727Z,4.55
2023-03-02T05:21:38.250Z,4.65
2023-03-02T05:25:42.476Z,4.75
2023-03-02T05:29:45.243Z,5.05
2023-03-02T05:33:48.315Z,5.35
2023-03-02T05:37:51.603Z,5.28
2023-03-02T05:41:55.846Z,5.00
2023-03-02T05:46:00.441Z,5.97
2023-03-02T05:50:03.305Z,6.10
2023-03-02T05:54:06.187Z,5.50
2023-03-02T05:58:14.341Z,6.22
2023-03-02T06:02:17.353Z,6.82
2023-03-02T06:06:20.186Z,5.82
2023-03-02T06:10:23.557Z,5.50
2023-03-02T06:14:28.134Z,5.88
2023-03-02T06:18:31.068Z,5.57
2023-03-02T06:22:33.822Z,5.22
2023-03-02T06:26:36.547Z,5.15
2023-03-02T06:30:40.616Z,5.53
2023-03-02T06:34:43.622Z,5.80
2023-03-02T06:38:46.657Z,6.53
2023-03-02T06:42:49.687Z,6.85
2023-03-02T06:46:53.798Z,7.72
2023-03-02T06:50:56.557Z,6.13
2023-03-02T06:54:59.303Z,6.13
2023-03-02T06:59:02.092Z,6.05
2023-03-02T07:03:06.145Z,6.18
2023-03-02T07:07:08.836Z,6.38
2023-03-02T07:11:13.382Z,7.22
2023-03-02T07:15:17.418Z,6.90
2023-03-02T07:19:21.460Z,7.03
2023-03-02T07:23:24.704Z,8.02
2023-03-02T07:27:27.413Z,7.18
2023-03-02T07:31:30.364Z,6.75
2023-03-02T07:35:34.676Z,6.50
2023-03-02T07:39:37.441Z,6.93
2023-03-02T07:43:40.540Z,6.50
2023-03-02T07:47:43.359Z,6.57
2023-03-02T07:51:47.464Z,5.90
2023-03-02T07:55:50.180Z,5.90
2023-03-02T07:59:52.894Z,6.07
2023-03-02T08:03:55.581Z,5.07
2023-03-02T08:07:59.594Z,5.85
2023-03-02T08:12:02.309Z,6.03
2023-03-02T08:16:08.210Z,6.53
2023-03-02T08:20:12.417Z,5.97
2023-03-02T08:24:16.471Z,6.50
2023-03-02T08:28:19.265Z,6.18
2023-03-02T08:32:22.153Z,5.70
2023-03-02T08:36:24.881Z,6.57
2023-03-02T08:40:29.184Z,5.57
2023-03-02T08:44:31.883Z,5.25
2023-03-02T08:48:34.993Z,5.70
2023-03-02T08:52:37.718Z,5.45
2023-03-02T08:56:44.359Z,5.43
2023-03-02T09:00:47.177Z,4.75
2023-03-02T09:04:49.986Z,4.78
2023-03-02T09:08:52.935Z,4.10
2023-03-02T09:12:56.962Z,3.88
2023-03-02T09:17:00.480Z,3.90
2023-03-02T09:21:03.754Z,3.90
2023-03-02T09:25:07.731Z,3.80
2023-03-02T09:29:11.792Z,3.55
2023-03-02T09:33:14.580Z,3.90
2023-03-02T09:37:17.509Z,3.80
2023-03-02T09:42:02.467Z,3.47
2023-03-02T09:46:17.015Z,3.58
2023-03-02T09:50:32.680Z,4.30
2023-03-02T09:54:38.002Z,3.90
2023-03-02T09:58:42.823Z,4.13
2023-03-02T10:02:49.714Z,3.80
2023-03-02T10:06:56.817Z,4.22
2023-03-02T10:11:06.424Z,3.92
2023-03-02T10:15:15.220Z,3.72
2023-03-02T10:19:25.987Z,3.58
2023-03-02T10:23:39.716Z,3.75
2023-03-02T10:27:45.297Z,3.85
2023-03-02T10:31:52.755Z,3.85
2023-03-02T10:35:56.907Z,3.67
2023-03-02T10:39:59.638Z,3.63
2023-03-02T10:44:07.217Z,3.40
2023-03-02T10:48:12.057Z,3.28
2023-03-02T10:52:18.430Z,3.25
2023-03-02T10:56:22.268Z,3.20
2023-03-02T11:00:27.988Z,2.85
2023-03-02T11:04:31.616Z,3.40
2023-03-02T11:08:35.703Z,3.35
2023-03-02T11:12:38.498Z,3.80
2023-03-02T11:16:41.265Z,3.63
2023-03-02T11:20:47.559Z,3.80
2023-03-02T11:24:56.984Z,4.30
2023-03-02T11:29:04.055Z,4.13
2023-03-02T11:33:12.989Z,4.57
2023-03-02T11:37:19.219Z,4.95
2023-03-02T11:41:29.694Z,5.38
2023-03-02T11:45:36.001Z,4.35
2023-03-02T11:49:43.337Z,4.70
2023-03-02T11:53:50.257Z,4.78
2023-03-02T11:57:57.771Z,4.70
2023-03-02T12:02:01.871Z,5.43
2023-03-02T12:06:07.635Z,4.40
2023-03-02T12:10:28.426Z,4.70
2023-03-02T12:14:39.660Z,4.30
2023-03-02T12:18:45.813Z,4.97
2023-03-02T12:22:48.602Z,4.95
2023-03-02T12:27:01.764Z,5.10
2023-03-02T12:31:12.048Z,4.80
2023-03-02T12:35:19.003Z,5.35
2023-03-02T12:39:33.361Z,5.03
2023-03-02T12:43:37.670Z,4.72
2023-03-02T12:47:46.401Z,4.35
2023-03-02T12:51:52.855Z,4.65
2023-03-02T12:55:55.961Z,4.95
2023-03-02T13:00:01.713Z,4.93
2023-03-02T13:04:05.919Z,5.00
2023-03-02T13:08:15.071Z,5.20
2023-03-02T13:12:17.838Z,5.15
2023-03-02T13:16:23.022Z,5.30
2023-03-02T13:20:30.316Z,4.78
2023-03-02T13:24:37.575Z,4.78
2023-03-02T13:28:41.202Z,5.50
2023-03-02T13:32:44.046Z,5.05
2023-03-02T13:36:48.182Z,5.38
2023-03-02T13:40:52.160Z,4.90
2023-03-02T13:44:54.967Z,5.07
2023-03-02T13:49:14.476Z,5.20
2023-03-02T13:53:18.677Z,5.50
2023-03-02T13:57:30.716Z,4.75
2023-03-02T14:01:33.612Z,5.75
2023-03-02T14:05:36.386Z,5.22
2023-03-02T14:09:40.512Z,5.45
2023-03-02T14:13:46.124Z,5.93
2023-03-02T14:17:49.977Z,6.75
2023-03-02T14:21:52.798Z,6.05
2023-03-02T14:25:57.949Z,6.30
2023-03-02T14:30:01.679Z,7.40
2023-03-02T14:34:04.536Z,6.10
2023-03-02T14:38:07.322Z,6.32
2023-03-02T14:42:14.186Z,7.68
2023-03-02T14:46:17.029Z,7.40
2023-03-02T14:50:19.792Z,7.63
2023-03-02T14:54:22.922Z,7.22
2023-03-02T14:58:31.939Z,7.25
2023-03-02T15:02:34.862Z,7.80
2023-03-02T15:06:40.477Z,7.85
2023-03-02T15:10:43.875Z,7.50
2023-03-02T15:14:47.958Z,8.35
2023-03-02T15:18:51.656Z,7.03
2023-03-02T15:22:54.401Z,7.40
2023-03-02T15:26:57.179Z,7.90
2023-03-02T15:31:08.151Z,6.72
2023-03-02T15:35:12.442Z,6.93
2023-03-02T15:39:16.684Z,6.95
2023-03-02T15:43:19.476Z,6.78
2023-03-02T15:47:23.851Z,7.25
2023-03-02T15:51:26.723Z,6.45
2023-03-02T15:55:29.449Z,6.88
2023-03-02T15:59:32.963Z,7.07
2023-03-02T16:03:37.078Z,7.05
2023-03-02T16:07:39.868Z,7.47
2023-03-02T16:11:42.580Z,7.90
2023-03-02T16:15:45.970Z,7.47
2023-03-02T16:19:50.964Z,7.78
2023-03-02T16:23:54.094Z,9.60
2023-03-02T16:27:56.847Z,10.25
2023-03-02T16:31:59.658Z,10.88
2023-03-02T16:36:04.261Z,10.63
2023-03-02T16:40:08.995Z,10.13
2023-03-02T16:44:13.322Z,10.60
2023-03-02T16:48:16.043Z,11.00
2023-03-02T16:52:20.358Z,10.93
2023-03-02T16:56:23.398Z,11.07
2023-03-02T17:00:27.070Z,11.65
2023-03-02T17:04:29.888Z,11.35
2023-03-02T17:08:34.086Z,11.52
2023-03-02T17:12:39.628Z,10.90
2023-03-02T17:16:42.443Z,11.27
2023-03-02T17:20:45.189Z,10.40
2023-03-02T17:24:49.234Z,11.00
2023-03-02T17:28:52.070Z,10.65
2023-03-02T17:32:54.811Z,10.43
2023-03-02T17:36:57.846Z,11.30
2023-03-02T17:41:04.722Z,10.50
2023-03-02T17:45:08.852Z,11.23
2023-03-02T17:49:11.613Z,11.10
2023-03-02T17:53:14.335Z,10.57
2023-03-02T17:57:22.353Z,10.90
2023-03-02T18:01:25.506Z,11.68
2023-03-02T18:05:28.272Z,11.48
2023-03-02T18:09:31.063Z,12.30
2023-03-02T18:13:35.186Z,13.90
2023-03-02T18:17:37.917Z,13.98
2023-03-02T18:21:41.755Z,14.98
2023-03-02T18:25:45.344Z,12.80
2023-03-02T18:29:49.507Z,13.15
2023-03-02T18:33:55.112Z,13.30
2023-03-02T18:37:58.946Z,12.93
2023-03-02T18:42:02.068Z,13.35
2023-03-02T18:46:19.164Z,13.43
2023-03-02T18:50:40.858Z,16.00
2023-03-02T18:54:44.336Z,14.02
2023-03-02T18:58:51.734Z,13.85
2023-03-02T19:02:59.043Z,14.65
2023-03-02T19:07:03.109Z,15.52
2023-03-02T19:11:07.120Z,15.93
2023-03-02T19:15:11.663Z,15.52
2023-03-02T19:19:16.384Z,16.00
2023-03-02T19:23:32.240Z,18.20
2023-03-02T19:27:35.874Z,17.80
2023-03-02T19:31:39.643Z,17.02
2023-03-02T19:35:44.932Z,18.50
2023-03-02T19:39:47.775Z,18.75
2023-03-02T19:43:55.830Z,19.77
2023-03-02T19:47:59.896Z,19.83
2023-03-02T19:52:11.648Z,20.20
2023-03-02T19:56:18.162Z,23.02
2023-03-02T20:00:25.582Z,19.98
2023-03-02T20:04:31.223Z,22.05
2023-03-02T20:08:39.407Z,24.40
2023-03-02T20:12:42.804Z,23.45
2023-03-02T20:16:47.934Z,21.67
2023-03-02T20:20:51.504Z,19.50
2023-03-02T20:24:57.167Z,20.38
2023-03-02T20:29:02.431Z,21.15
2023-03-02T20:33:07.324Z,21.58
2023-03-02T20:37:11.938Z,23.15
2023-03-02T20:41:20.749Z,21.83
2023-03-02T20:45:26.611Z,22.45
2023-03-02T20:49:32.286Z,23.42
2023-03-02T20:53:37.415Z,23.83
2023-03-02T20:57:44.715Z,21.88
2023-03-02T21:01:51.955Z,21.13
2023-03-02T21:05:57.228Z,20.15
2023-03-02T21:10:04.588Z,19.90
2023-03-02T21:14:14.078Z,19.23
2023-03-02T21:18:17.837Z,20.50
2023-03-02T21:22:24.386Z,18.67
2023-03-02T21:26:27.915Z,17.30
2023-03-02T21:30:34.941Z,17.77
2023-03-02T21:34:38.565Z,17.40
2023-03-02T21:38:42.009Z,17.55
2023-03-02T21:42:45.545Z,17.67
2023-03-02T21:46:50.821Z,17.38
2023-03-02T21:50:53.596Z,18.00
2023-03-02T21:54:56.560Z,18.02
2023-03-02T21:59:02.603Z,18.17
2023-03-02T22:03:07.744Z,18.70
2023-03-02T22:07:11.088Z,18.15
2023-03-02T22:11:20.351Z,17.77
2023-03-02T22:15:24.132Z,17.40
2023-03-02T22:19:30.429Z,18.65
2023-03-02T22:23:33.343Z,17.92
2023-03-02T22:27:36.475Z,18.63
2023-03-02T22:31:42.119Z,17.65
2023-03-02T22:35:46.828Z,17.27
2023-03-02T22:39:53.972Z,16.73
2023-03-02T22:43:57.813Z,16.10
2023-03-02T22:48:01.159Z,16.33
2023-03-02T22:52:14.060Z,15.88
2023-03-02T22:56:30.454Z,15.20
2023-03-02T23:00:40.365Z,14.77
2023-03-02T23:04:43.742Z,15.50
2023-03-02T23:08:48.165Z,15.00
2023-03-02T23:12:51.321Z,15.88
2023-03-02T23:16:58.646Z,17.13
2023-03-02T23:21:01.509Z,16.27
2023-03-02T23:25:09.463Z,19.10
2023-03-02T23:29:16.350Z,15.80
2023-03-02T23:33:19.425Z,15.10
2023-03-02T23:37:22.400Z,15.95
2023-03-02T23:41:26.893Z,14.82
2023-03-02T23:45:30.091Z,15.25
2023-03-02T23:49:36.028Z,14.90
2023-03-02T23:53:45.746Z,14.93
2023-03-02T23:57:50.297Z,14.38
